CheckWX is a tool to help pilots better visualize weather data.  It is not intended as a substitute for an official pre-flight weather briefing.

16:03:10 UTC

DAOO METAR
Es Senia Airport
Oran, Algeria
Current

33 mins ago

DAOO 261530Z 35014KT 9999 FEW020 22/14 Q1015
Observed
May-26 @ 15:30 UTC
Wind
  • 350° at 14 KTS
Visibility
10,000+ meters
Flight Rules
VFR
Cloud Levels
  • Few at 2,000' AGL
Temperature
22°C / 72°F
Dewpoint
14°C / 57°F
Humidity
61%
Altimeter
29.97" Hg
Pressure
1014.92 hPa
Previous

1 hour ago

DAOO 261500Z 32017KT 9999 FEW020 23/14 Q1015
Observed
May-26 @ 15:00 UTC
Wind
  • 320° at 17 KTS
Visibility
10,000+ meters
Flight Rules
VFR
Cloud Levels
  • Few at 2,000' AGL
Temperature
23°C / 73°F
Dewpoint
14°C / 57°F
Humidity
57%
Altimeter
29.97" Hg
Pressure
1014.92 hPa
Previous

2 hours ago

DAOO 261430Z 33014KT 9999 FEW020 23/14 Q1015
Observed
May-26 @ 14:30 UTC
Wind
  • 330° at 14 KTS
Visibility
10,000+ meters
Flight Rules
VFR
Cloud Levels
  • Few at 2,000' AGL
Temperature
23°C / 73°F
Dewpoint
14°C / 57°F
Humidity
57%
Altimeter
29.97" Hg
Pressure
1014.92 hPa